sensor_id;sensor_type;location;lat;lon;timestamp;P1;durP1;ratioP1;P2;durP2;ratioP2
8013;SDS011;4052;50.500;8.660;2022-12-07T00:00:52;4.70;;;3.87;;
8013;SDS011;4052;50.500;8.660;2022-12-07T00:03:18;10.77;;;5.23;;
8013;SDS011;4052;50.500;8.660;2022-12-07T00:05:44;5.13;;;3.77;;
8013;SDS011;4052;50.500;8.660;2022-12-07T00:08:10;5.73;;;3.93;;
8013;SDS011;4052;50.500;8.660;2022-12-07T00:10:36;5.60;;;3.07;;
8013;SDS011;4052;50.500;8.660;2022-12-07T00:13:02;7.13;;;3.00;;
8013;SDS011;4052;50.500;8.660;2022-12-07T00:15:29;4.73;;;2.37;;
8013;SDS011;4052;50.500;8.660;2022-12-07T00:17:55;4.07;;;3.57;;
8013;SDS011;4052;50.500;8.660;2022-12-07T00:20:21;5.30;;;4.23;;
8013;SDS011;4052;50.500;8.660;2022-12-07T00:22:47;6.70;;;4.73;;
8013;SDS011;4052;50.500;8.660;2022-12-07T00:25:13;4.43;;;3.57;;
8013;SDS011;4052;50.500;8.660;2022-12-07T00:27:39;10.40;;;3.97;;
8013;SDS011;4052;50.500;8.660;2022-12-07T00:30:06;4.53;;;3.03;;
8013;SDS011;4052;50.500;8.660;2022-12-07T00:32:32;3.23;;;2.93;;
8013;SDS011;4052;50.500;8.660;2022-12-07T00:34:58;9.47;;;5.87;;
8013;SDS011;4052;50.500;8.660;2022-12-07T00:37:24;5.77;;;4.27;;
8013;SDS011;4052;50.500;8.660;2022-12-07T00:39:50;4.37;;;2.97;;
8013;SDS011;4052;50.500;8.660;2022-12-07T00:42:18;6.83;;;4.47;;
8013;SDS011;4052;50.500;8.660;2022-12-07T00:44:44;7.37;;;5.00;;
8013;SDS011;4052;50.500;8.660;2022-12-07T00:47:10;5.43;;;3.93;;
8013;SDS011;4052;50.500;8.660;2022-12-07T00:49:36;5.00;;;3.70;;
8013;SDS011;4052;50.500;8.660;2022-12-07T00:52:02;4.47;;;2.97;;
8013;SDS011;4052;50.500;8.660;2022-12-07T00:54:29;6.17;;;2.90;;
8013;SDS011;4052;50.500;8.660;2022-12-07T00:56:55;2.93;;;2.33;;
8013;SDS011;4052;50.500;8.660;2022-12-07T00:59:21;4.90;;;2.87;;
8013;SDS011;4052;50.500;8.660;2022-12-07T01:01:47;3.93;;;2.23;;
8013;SDS011;4052;50.500;8.660;2022-12-07T01:04:14;3.77;;;2.33;;
8013;SDS011;4052;50.500;8.660;2022-12-07T01:06:40;4.10;;;2.60;;
8013;SDS011;4052;50.500;8.660;2022-12-07T01:09:06;8.73;;;4.47;;
8013;SDS011;4052;50.500;8.660;2022-12-07T01:11:32;3.20;;;2.37;;
8013;SDS011;4052;50.500;8.660;2022-12-07T01:13:59;4.43;;;2.37;;
8013;SDS011;4052;50.500;8.660;2022-12-07T01:16:26;6.03;;;2.33;;
8013;SDS011;4052;50.500;8.660;2022-12-07T01:18:53;6.70;;;2.93;;
8013;SDS011;4052;50.500;8.660;2022-12-07T01:21:23;4.07;;;2.40;;
8013;SDS011;4052;50.500;8.660;2022-12-07T01:23:49;3.40;;;1.90;;
8013;SDS011;4052;50.500;8.660;2022-12-07T01:26:17;4.03;;;2.50;;
8013;SDS011;4052;50.500;8.660;2022-12-07T01:28:44;5.37;;;2.63;;
8013;SDS011;4052;50.500;8.660;2022-12-07T01:31:14;4.60;;;2.70;;
8013;SDS011;4052;50.500;8.660;2022-12-07T01:33:41;4.70;;;2.97;;
8013;SDS011;4052;50.500;8.660;2022-12-07T01:36:11;2.03;;;1.77;;
8013;SDS011;4052;50.500;8.660;2022-12-07T01:38:38;2.83;;;1.97;;
8013;SDS011;4052;50.500;8.660;2022-12-07T01:41:04;3.07;;;2.40;;
8013;SDS011;4052;50.500;8.660;2022-12-07T01:43:32;4.63;;;2.07;;
8013;SDS011;4052;50.500;8.660;2022-12-07T01:45:59;2.13;;;1.93;;
8013;SDS011;4052;50.500;8.660;2022-12-07T01:48:38;4.53;;;2.23;;
8013;SDS011;4052;50.500;8.660;2022-12-07T01:51:08;3.57;;;1.70;;
8013;SDS011;4052;50.500;8.660;2022-12-07T01:53:36;1.40;;;1.33;;
8013;SDS011;4052;50.500;8.660;2022-12-07T01:56:04;2.23;;;2.03;;
8013;SDS011;4052;50.500;8.660;2022-12-07T01:58:31;2.07;;;1.90;;
8013;SDS011;4052;50.500;8.660;2022-12-07T02:00:57;1.83;;;1.73;;
8013;SDS011;4052;50.500;8.660;2022-12-07T02:03:25;5.00;;;2.93;;
8013;SDS011;4052;50.500;8.660;2022-12-07T02:05:53;2.00;;;1.00;;
8013;SDS011;4052;50.500;8.660;2022-12-07T02:08:20;1.30;;;1.20;;
8013;SDS011;4052;50.500;8.660;2022-12-07T02:10:46;1.17;;;1.07;;
8013;SDS011;4052;50.500;8.660;2022-12-07T02:13:13;4.93;;;2.30;;
8013;SDS011;4052;50.500;8.660;2022-12-07T02:18:28;2.10;;;1.47;;
8013;SDS011;4052;50.500;8.660;2022-12-07T02:21:08;1.97;;;1.77;;
8013;SDS011;4052;50.500;8.660;2022-12-07T02:23:51;2.67;;;1.57;;
8013;SDS011;4052;50.500;8.660;2022-12-07T02:31:31;2.57;;;1.87;;
8013;SDS011;4052;50.500;8.660;2022-12-07T02:34:01;2.83;;;1.97;;
8013;SDS011;4052;50.500;8.660;2022-12-07T02:36:31;2.07;;;1.73;;
8013;SDS011;4052;50.500;8.660;2022-12-07T02:39:10;1.83;;;1.40;;
8013;SDS011;4052;50.500;8.660;2022-12-07T02:41:39;3.10;;;1.53;;
8013;SDS011;4052;50.500;8.660;2022-12-07T02:44:07;2.93;;;1.57;;
8013;SDS011;4052;50.500;8.660;2022-12-07T02:46:36;6.53;;;2.70;;
8013;SDS011;4052;50.500;8.660;2022-12-07T02:49:03;3.63;;;1.77;;
8013;SDS011;4052;50.500;8.660;2022-12-07T02:51:31;2.70;;;2.50;;
8013;SDS011;4052;50.500;8.660;2022-12-07T02:53:58;2.40;;;2.03;;
8013;SDS011;4052;50.500;8.660;2022-12-07T03:01:28;2.10;;;1.30;;
8013;SDS011;4052;50.500;8.660;2022-12-07T03:04:21;3.30;;;1.70;;
8013;SDS011;4052;50.500;8.660;2022-12-07T03:06:43;2.30;;;1.20;;
8013;SDS011;4052;50.500;8.660;2022-12-07T03:09:18;1.90;;;1.80;;
8013;SDS011;4052;50.500;8.660;2022-12-07T03:11:57;2.17;;;1.57;;
8013;SDS011;4052;50.500;8.660;2022-12-07T03:14:30;5.10;;;1.67;;
8013;SDS011;4052;50.500;8.660;2022-12-07T03:17:02;3.03;;;1.50;;
8013;SDS011;4052;50.500;8.660;2022-12-07T03:19:30;1.20;;;1.03;;
8013;SDS011;4052;50.500;8.660;2022-12-07T03:22:02;3.63;;;1.87;;
8013;SDS011;4052;50.500;8.660;2022-12-07T03:24:35;1.40;;;1.30;;
8013;SDS011;4052;50.500;8.660;2022-12-07T03:27:04;2.10;;;1.90;;
8013;SDS011;4052;50.500;8.660;2022-12-07T03:29:37;1.97;;;1.87;;
8013;SDS011;4052;50.500;8.660;2022-12-07T03:34:39;2.20;;;1.63;;
8013;SDS011;4052;50.500;8.660;2022-12-07T03:37:14;3.37;;;1.87;;
8013;SDS011;4052;50.500;8.660;2022-12-07T03:39:49;2.40;;;1.97;;
8013;SDS011;4052;50.500;8.660;2022-12-07T03:42:17;3.20;;;2.00;;
8013;SDS011;4052;50.500;8.660;2022-12-07T03:44:43;2.73;;;1.63;;
8013;SDS011;4052;50.500;8.660;2022-12-07T03:47:13;3.30;;;2.43;;
8013;SDS011;4052;50.500;8.660;2022-12-07T03:52:20;2.67;;;2.40;;
8013;SDS011;4052;50.500;8.660;2022-12-07T03:57:33;2.03;;;1.90;;
8013;SDS011;4052;50.500;8.660;2022-12-07T04:00:00;5.77;;;2.67;;
8013;SDS011;4052;50.500;8.660;2022-12-07T04:02:27;3.57;;;2.00;;
8013;SDS011;4052;50.500;8.660;2022-12-07T04:04:54;4.93;;;2.00;;
8013;SDS011;4052;50.500;8.660;2022-12-07T04:07:21;2.47;;;1.37;;
8013;SDS011;4052;50.500;8.660;2022-12-07T04:09:47;2.20;;;2.03;;
8013;SDS011;4052;50.500;8.660;2022-12-07T04:12:13;3.73;;;2.27;;
8013;SDS011;4052;50.500;8.660;2022-12-07T04:14:39;5.23;;;3.33;;
8013;SDS011;4052;50.500;8.660;2022-12-07T04:17:05;5.90;;;2.50;;
8013;SDS011;4052;50.500;8.660;2022-12-07T04:19:32;4.40;;;2.63;;
8013;SDS011;4052;50.500;8.660;2022-12-07T04:22:00;2.47;;;1.30;;
8013;SDS011;4052;50.500;8.660;2022-12-07T04:24:26;2.10;;;1.83;;
8013;SDS011;4052;50.500;8.660;2022-12-07T04:26:52;2.57;;;1.77;;
8013;SDS011;4052;50.500;8.660;2022-12-07T04:29:19;2.23;;;1.83;;
8013;SDS011;4052;50.500;8.660;2022-12-07T04:31:45;6.00;;;3.43;;
8013;SDS011;4052;50.500;8.660;2022-12-07T04:37:15;2.80;;;2.57;;
8013;SDS011;4052;50.500;8.660;2022-12-07T04:39:42;2.93;;;1.97;;
8013;SDS011;4052;50.500;8.660;2022-12-07T04:42:10;5.40;;;1.83;;
8013;SDS011;4052;50.500;8.660;2022-12-07T04:44:37;2.23;;;2.07;;
8013;SDS011;4052;50.500;8.660;2022-12-07T04:47:04;2.30;;;1.87;;
8013;SDS011;4052;50.500;8.660;2022-12-07T04:49:30;3.73;;;1.80;;
8013;SDS011;4052;50.500;8.660;2022-12-07T04:51:56;1.60;;;1.20;;
8013;SDS011;4052;50.500;8.660;2022-12-07T04:54:22;5.20;;;2.83;;
8013;SDS011;4052;50.500;8.660;2022-12-07T04:56:48;3.10;;;2.03;;
8013;SDS011;4052;50.500;8.660;2022-12-07T04:59:15;2.00;;;1.90;;
8013;SDS011;4052;50.500;8.660;2022-12-07T05:01:41;3.10;;;2.40;;
8013;SDS011;4052;50.500;8.660;2022-12-07T05:04:08;1.43;;;1.37;;
8013;SDS011;4052;50.500;8.660;2022-12-07T05:06:34;2.97;;;1.37;;
8013;SDS011;4052;50.500;8.660;2022-12-07T05:09:00;2.60;;;2.40;;
8013;SDS011;4052;50.500;8.660;2022-12-07T05:11:27;3.73;;;2.70;;
8013;SDS011;4052;50.500;8.660;2022-12-07T05:16:32;1.50;;;1.50;;
8013;SDS011;4052;50.500;8.660;2022-12-07T05:18:58;3.17;;;2.23;;
8013;SDS011;4052;50.500;8.660;2022-12-07T05:21:24;5.50;;;3.33;;
8013;SDS011;4052;50.500;8.660;2022-12-07T05:23:50;3.50;;;2.13;;
8013;SDS011;4052;50.500;8.660;2022-12-07T05:26:18;5.60;;;3.60;;
8013;SDS011;4052;50.500;8.660;2022-12-07T05:28:44;2.97;;;2.27;;
8013;SDS011;4052;50.500;8.660;2022-12-07T05:31:10;4.97;;;2.53;;
8013;SDS011;4052;50.500;8.660;2022-12-07T05:33:36;5.33;;;3.67;;
8013;SDS011;4052;50.500;8.660;2022-12-07T05:36:03;3.33;;;2.57;;
8013;SDS011;4052;50.500;8.660;2022-12-07T05:38:31;4.67;;;3.80;;
8013;SDS011;4052;50.500;8.660;2022-12-07T05:41:04;4.33;;;2.17;;
8013;SDS011;4052;50.500;8.660;2022-12-07T05:43:30;3.60;;;2.67;;
8013;SDS011;4052;50.500;8.660;2022-12-07T05:45:57;3.73;;;3.10;;
8013;SDS011;4052;50.500;8.660;2022-12-07T05:48:23;5.10;;;3.27;;
8013;SDS011;4052;50.500;8.660;2022-12-07T05:50:50;3.20;;;2.30;;
8013;SDS011;4052;50.500;8.660;2022-12-07T05:53:16;1.67;;;1.47;;
8013;SDS011;4052;50.500;8.660;2022-12-07T05:55:43;2.40;;;2.17;;
8013;SDS011;4052;50.500;8.660;2022-12-07T05:58:09;2.17;;;1.97;;
8013;SDS011;4052;50.500;8.660;2022-12-07T06:00:55;3.10;;;1.73;;
8013;SDS011;4052;50.500;8.660;2022-12-07T06:03:21;0.90;;;0.87;;
8013;SDS011;4052;50.500;8.660;2022-12-07T06:05:47;3.83;;;3.03;;
8013;SDS011;4052;50.500;8.660;2022-12-07T06:08:13;2.87;;;2.63;;
8013;SDS011;4052;50.500;8.660;2022-12-07T06:10:40;9.17;;;3.13;;
8013;SDS011;4052;50.500;8.660;2022-12-07T06:13:07;2.03;;;1.83;;
8013;SDS011;4052;50.500;8.660;2022-12-07T06:15:35;3.77;;;2.67;;
8013;SDS011;4052;50.500;8.660;2022-12-07T06:18:01;4.17;;;1.97;;
8013;SDS011;4052;50.500;8.660;2022-12-07T06:20:27;3.97;;;1.97;;
8013;SDS011;4052;50.500;8.660;2022-12-07T06:22:53;5.73;;;2.63;;
8013;SDS011;4052;50.500;8.660;2022-12-07T06:25:19;13.23;;;2.60;;
8013;SDS011;4052;50.500;8.660;2022-12-07T06:27:46;2.27;;;1.73;;
8013;SDS011;4052;50.500;8.660;2022-12-07T06:30:12;3.00;;;2.70;;
8013;SDS011;4052;50.500;8.660;2022-12-07T06:32:39;2.13;;;2.03;;
8013;SDS011;4052;50.500;8.660;2022-12-07T06:35:05;1.77;;;1.17;;
8013;SDS011;4052;50.500;8.660;2022-12-07T06:37:31;5.27;;;2.57;;
8013;SDS011;4052;50.500;8.660;2022-12-07T06:39:57;5.50;;;3.03;;
8013;SDS011;4052;50.500;8.660;2022-12-07T06:42:23;3.10;;;1.80;;
8013;SDS011;4052;50.500;8.660;2022-12-07T06:44:49;2.50;;;2.10;;
8013;SDS011;4052;50.500;8.660;2022-12-07T06:47:15;4.70;;;2.37;;
8013;SDS011;4052;50.500;8.660;2022-12-07T06:49:41;3.53;;;1.63;;
8013;SDS011;4052;50.500;8.660;2022-12-07T06:52:08;4.80;;;3.00;;
8013;SDS011;4052;50.500;8.660;2022-12-07T06:54:34;6.50;;;2.00;;
8013;SDS011;4052;50.500;8.660;2022-12-07T06:57:00;3.03;;;2.13;;
8013;SDS011;4052;50.500;8.660;2022-12-07T06:59:26;3.40;;;1.77;;
8013;SDS011;4052;50.500;8.660;2022-12-07T07:01:52;3.73;;;2.17;;
8013;SDS011;4052;50.500;8.660;2022-12-07T07:04:18;5.20;;;2.60;;
8013;SDS011;4052;50.500;8.660;2022-12-07T07:06:44;2.10;;;1.97;;
8013;SDS011;4052;50.500;8.660;2022-12-07T07:09:12;4.67;;;2.03;;
8013;SDS011;4052;50.500;8.660;2022-12-07T07:11:38;7.43;;;2.50;;
8013;SDS011;4052;50.500;8.660;2022-12-07T07:14:04;1.93;;;1.37;;
8013;SDS011;4052;50.500;8.660;2022-12-07T07:16:30;2.40;;;1.80;;
8013;SDS011;4052;50.500;8.660;2022-12-07T07:18:57;4.83;;;2.07;;
8013;SDS011;4052;50.500;8.660;2022-12-07T07:21:23;5.47;;;3.27;;
8013;SDS011;4052;50.500;8.660;2022-12-07T07:23:49;4.27;;;2.07;;
8013;SDS011;4052;50.500;8.660;2022-12-07T07:26:15;3.83;;;2.20;;
8013;SDS011;4052;50.500;8.660;2022-12-07T07:28:41;4.80;;;2.27;;
8013;SDS011;4052;50.500;8.660;2022-12-07T07:31:07;2.27;;;2.07;;
8013;SDS011;4052;50.500;8.660;2022-12-07T07:33:33;6.07;;;1.90;;
8013;SDS011;4052;50.500;8.660;2022-12-07T07:35:59;2.67;;;2.00;;
8013;SDS011;4052;50.500;8.660;2022-12-07T07:38:26;3.53;;;2.60;;
8013;SDS011;4052;50.500;8.660;2022-12-07T07:40:52;3.93;;;2.13;;
8013;SDS011;4052;50.500;8.660;2022-12-07T07:46:21;3.90;;;2.73;;
8013;SDS011;4052;50.500;8.660;2022-12-07T07:48:47;3.07;;;2.77;;
8013;SDS011;4052;50.500;8.660;2022-12-07T07:51:14;2.50;;;1.83;;
8013;SDS011;4052;50.500;8.660;2022-12-07T07:53:40;2.83;;;2.20;;
8013;SDS011;4052;50.500;8.660;2022-12-07T07:56:06;3.50;;;2.07;;
8013;SDS011;4052;50.500;8.660;2022-12-07T07:58:32;3.80;;;2.33;;
8013;SDS011;4052;50.500;8.660;2022-12-07T08:01:05;3.87;;;2.73;;
8013;SDS011;4052;50.500;8.660;2022-12-07T08:03:32;2.83;;;2.63;;
8013;SDS011;4052;50.500;8.660;2022-12-07T08:05:58;3.80;;;2.67;;
8013;SDS011;4052;50.500;8.660;2022-12-07T08:08:24;3.20;;;2.23;;
8013;SDS011;4052;50.500;8.660;2022-12-07T08:10:50;2.47;;;1.97;;
8013;SDS011;4052;50.500;8.660;2022-12-07T08:13:16;3.30;;;2.40;;
8013;SDS011;4052;50.500;8.660;2022-12-07T08:15:43;3.00;;;2.53;;
8013;SDS011;4052;50.500;8.660;2022-12-07T08:18:10;7.13;;;2.40;;
8013;SDS011;4052;50.500;8.660;2022-12-07T08:20:37;4.13;;;3.10;;
8013;SDS011;4052;50.500;8.660;2022-12-07T08:23:03;1.70;;;1.60;;
8013;SDS011;4052;50.500;8.660;2022-12-07T08:25:29;2.00;;;1.83;;
8013;SDS011;4052;50.500;8.660;2022-12-07T08:27:56;5.00;;;2.27;;
8013;SDS011;4052;50.500;8.660;2022-12-07T08:30:22;3.00;;;2.50;;
8013;SDS011;4052;50.500;8.660;2022-12-07T08:32:48;4.10;;;2.90;;
8013;SDS011;4052;50.500;8.660;2022-12-07T08:35:15;2.77;;;2.07;;
8013;SDS011;4052;50.500;8.660;2022-12-07T08:37:41;7.57;;;3.07;;
8013;SDS011;4052;50.500;8.660;2022-12-07T08:40:08;1.97;;;1.47;;
8013;SDS011;4052;50.500;8.660;2022-12-07T08:42:35;4.50;;;2.17;;
8013;SDS011;4052;50.500;8.660;2022-12-07T08:45:09;3.27;;;2.63;;
8013;SDS011;4052;50.500;8.660;2022-12-07T08:47:36;2.03;;;1.40;;
8013;SDS011;4052;50.500;8.660;2022-12-07T08:50:03;3.23;;;2.40;;
8013;SDS011;4052;50.500;8.660;2022-12-07T08:52:30;3.63;;;3.13;;
8013;SDS011;4052;50.500;8.660;2022-12-07T08:54:57;1.10;;;1.00;;
8013;SDS011;4052;50.500;8.660;2022-12-07T08:57:24;2.93;;;2.73;;
8013;SDS011;4052;50.500;8.660;2022-12-07T08:59:50;13.03;;;1.83;;
8013;SDS011;4052;50.500;8.660;2022-12-07T09:02:17;7.17;;;3.80;;
8013;SDS011;4052;50.500;8.660;2022-12-07T09:04:43;7.50;;;2.90;;
8013;SDS011;4052;50.500;8.660;2022-12-07T09:07:09;2.57;;;2.40;;
8013;SDS011;4052;50.500;8.660;2022-12-07T09:09:35;2.63;;;1.87;;
8013;SDS011;4052;50.500;8.660;2022-12-07T09:12:01;2.70;;;2.07;;
8013;SDS011;4052;50.500;8.660;2022-12-07T09:17:32;2.40;;;1.93;;
8013;SDS011;4052;50.500;8.660;2022-12-07T09:19:58;2.47;;;2.13;;
8013;SDS011;4052;50.500;8.660;2022-12-07T09:22:28;1.80;;;1.70;;
8013;SDS011;4052;50.500;8.660;2022-12-07T09:24:55;2.70;;;1.50;;
8013;SDS011;4052;50.500;8.660;2022-12-07T09:27:21;4.10;;;2.37;;
8013;SDS011;4052;50.500;8.660;2022-12-07T09:29:47;4.90;;;3.07;;
8013;SDS011;4052;50.500;8.660;2022-12-07T09:32:13;2.90;;;1.73;;
8013;SDS011;4052;50.500;8.660;2022-12-07T09:34:39;6.17;;;2.60;;
8013;SDS011;4052;50.500;8.660;2022-12-07T09:37:05;3.87;;;2.30;;
8013;SDS011;4052;50.500;8.660;2022-12-07T09:39:32;5.30;;;2.30;;
8013;SDS011;4052;50.500;8.660;2022-12-07T09:41:58;7.97;;;3.00;;
8013;SDS011;4052;50.500;8.660;2022-12-07T09:44:25;2.97;;;2.50;;
8013;SDS011;4052;50.500;8.660;2022-12-07T09:46:53;4.03;;;2.17;;
8013;SDS011;4052;50.500;8.660;2022-12-07T09:49:20;2.27;;;2.07;;
8013;SDS011;4052;50.500;8.660;2022-12-07T09:54:27;4.40;;;3.00;;
8013;SDS011;4052;50.500;8.660;2022-12-07T09:56:54;3.27;;;2.60;;
8013;SDS011;4052;50.500;8.660;2022-12-07T09:59:20;3.77;;;1.93;;
8013;SDS011;4052;50.500;8.660;2022-12-07T10:01:47;3.43;;;2.47;;
8013;SDS011;4052;50.500;8.660;2022-12-07T10:04:35;2.57;;;1.90;;
8013;SDS011;4052;50.500;8.660;2022-12-07T10:07:00;2.30;;;1.93;;
8013;SDS011;4052;50.500;8.660;2022-12-07T10:09:26;2.43;;;1.57;;
8013;SDS011;4052;50.500;8.660;2022-12-07T10:14:25;10.23;;;4.23;;
8013;SDS011;4052;50.500;8.660;2022-12-07T10:16:53;2.20;;;2.10;;
8013;SDS011;4052;50.500;8.660;2022-12-07T10:19:24;3.13;;;2.80;;
8013;SDS011;4052;50.500;8.660;2022-12-07T10:22:00;1.70;;;1.60;;
8013;SDS011;4052;50.500;8.660;2022-12-07T10:24:27;5.40;;;3.43;;
8013;SDS011;4052;50.500;8.660;2022-12-07T10:26:54;4.87;;;3.07;;
8013;SDS011;4052;50.500;8.660;2022-12-07T10:29:21;2.00;;;1.83;;
8013;SDS011;4052;50.500;8.660;2022-12-07T10:32:02;3.10;;;2.43;;
8013;SDS011;4052;50.500;8.660;2022-12-07T10:34:33;2.90;;;2.70;;
8013;SDS011;4052;50.500;8.660;2022-12-07T10:39:45;2.90;;;2.17;;
8013;SDS011;4052;50.500;8.660;2022-12-07T10:42:16;2.03;;;1.83;;
8013;SDS011;4052;50.500;8.660;2022-12-07T10:44:42;3.37;;;2.73;;
8013;SDS011;4052;50.500;8.660;2022-12-07T10:50:10;4.53;;;2.73;;
8013;SDS011;4052;50.500;8.660;2022-12-07T11:00:27;2.07;;;1.97;;
8013;SDS011;4052;50.500;8.660;2022-12-07T11:05:24;2.63;;;1.73;;
8013;SDS011;4052;50.500;8.660;2022-12-07T11:18:29;5.80;;;1.80;;
8013;SDS011;4052;50.500;8.660;2022-12-07T11:26:25;2.07;;;1.33;;
8013;SDS011;4052;50.500;8.660;2022-12-07T11:37:10;1.97;;;0.70;;
8013;SDS011;4052;50.500;8.660;2022-12-07T11:39:46;1.30;;;1.20;;
8013;SDS011;4052;50.500;8.660;2022-12-07T11:42:15;3.93;;;1.20;;
8013;SDS011;4052;50.500;8.660;2022-12-07T11:47:36;3.20;;;1.17;;
8013;SDS011;4052;50.500;8.660;2022-12-07T11:50:23;4.90;;;2.47;;
8013;SDS011;4052;50.500;8.660;2022-12-07T11:55:21;0.97;;;0.53;;
8013;SDS011;4052;50.500;8.660;2022-12-07T11:57:56;1.13;;;0.77;;
8013;SDS011;4052;50.500;8.660;2022-12-07T12:00:24;0.87;;;0.57;;
8013;SDS011;4052;50.500;8.660;2022-12-07T12:02:58;0.60;;;0.60;;
8013;SDS011;4052;50.500;8.660;2022-12-07T12:05:26;0.73;;;0.63;;
8013;SDS011;4052;50.500;8.660;2022-12-07T12:08:05;0.70;;;0.67;;
8013;SDS011;4052;50.500;8.660;2022-12-07T12:21:04;0.67;;;0.67;;
8013;SDS011;4052;50.500;8.660;2022-12-07T12:23:35;0.50;;;0.40;;
8013;SDS011;4052;50.500;8.660;2022-12-07T12:26:03;1.40;;;0.97;;
8013;SDS011;4052;50.500;8.660;2022-12-07T12:33:46;0.80;;;0.80;;
8013;SDS011;4052;50.500;8.660;2022-12-07T12:44:00;0.83;;;0.83;;
8013;SDS011;4052;50.500;8.660;2022-12-07T12:51:46;0.83;;;0.83;;
8013;SDS011;4052;50.500;8.660;2022-12-07T12:57:49;1.70;;;1.07;;
8013;SDS011;4052;50.500;8.660;2022-12-07T13:02:35;0.50;;;0.50;;
8013;SDS011;4052;50.500;8.660;2022-12-07T13:05:02;0.70;;;0.70;;
8013;SDS011;4052;50.500;8.660;2022-12-07T13:15:37;0.60;;;0.60;;
8013;SDS011;4052;50.500;8.660;2022-12-07T13:18:25;1.00;;;1.00;;
8013;SDS011;4052;50.500;8.660;2022-12-07T13:20:51;8.13;;;1.00;;
8013;SDS011;4052;50.500;8.660;2022-12-07T13:23:18;5.73;;;1.10;;
8013;SDS011;4052;50.500;8.660;2022-12-07T13:26:33;3.50;;;0.90;;
8013;SDS011;4052;50.500;8.660;2022-12-07T13:28:36;4.37;;;1.50;;
8013;SDS011;4052;50.500;8.660;2022-12-07T13:33:30;1.13;;;0.87;;
8013;SDS011;4052;50.500;8.660;2022-12-07T13:35:56;2.77;;;0.80;;
8013;SDS011;4052;50.500;8.660;2022-12-07T13:38:34;0.80;;;0.43;;
8013;SDS011;4052;50.500;8.660;2022-12-07T13:41:11;0.77;;;0.53;;
8013;SDS011;4052;50.500;8.660;2022-12-07T13:43:45;4.33;;;0.90;;
8013;SDS011;4052;50.500;8.660;2022-12-07T13:46:11;0.33;;;0.33;;
8013;SDS011;4052;50.500;8.660;2022-12-07T13:48:45;2.13;;;0.93;;
8013;SDS011;4052;50.500;8.660;2022-12-07T13:51:20;1.03;;;0.67;;
8013;SDS011;4052;50.500;8.660;2022-12-07T13:53:47;5.40;;;0.80;;
8013;SDS011;4052;50.500;8.660;2022-12-07T13:56:13;0.97;;;0.90;;
8013;SDS011;4052;50.500;8.660;2022-12-07T13:58:41;0.97;;;0.93;;
8013;SDS011;4052;50.500;8.660;2022-12-07T14:01:07;7.93;;;1.00;;
8013;SDS011;4052;50.500;8.660;2022-12-07T14:03:34;0.90;;;0.90;;
8013;SDS011;4052;50.500;8.660;2022-12-07T14:08:40;2.27;;;1.20;;
8013;SDS011;4052;50.500;8.660;2022-12-07T14:11:06;2.80;;;1.13;;
8013;SDS011;4052;50.500;8.660;2022-12-07T14:13:42;1.87;;;1.27;;
8013;SDS011;4052;50.500;8.660;2022-12-07T14:16:32;2.73;;;1.30;;
8013;SDS011;4052;50.500;8.660;2022-12-07T14:18:57;5.80;;;1.33;;
8013;SDS011;4052;50.500;8.660;2022-12-07T14:21:28;4.80;;;0.80;;
8013;SDS011;4052;50.500;8.660;2022-12-07T14:24:08;1.70;;;1.50;;
8013;SDS011;4052;50.500;8.660;2022-12-07T14:26:35;1.50;;;1.17;;
8013;SDS011;4052;50.500;8.660;2022-12-07T14:29:27;1.73;;;1.00;;
8013;SDS011;4052;50.500;8.660;2022-12-07T14:31:56;1.00;;;0.90;;
8013;SDS011;4052;50.500;8.660;2022-12-07T14:34:22;0.80;;;0.80;;
8013;SDS011;4052;50.500;8.660;2022-12-07T14:36:49;1.83;;;1.00;;
8013;SDS011;4052;50.500;8.660;2022-12-07T14:39:15;4.53;;;1.67;;
8013;SDS011;4052;50.500;8.660;2022-12-07T14:41:42;4.00;;;1.30;;
8013;SDS011;4052;50.500;8.660;2022-12-07T14:44:21;4.93;;;0.90;;
8013;SDS011;4052;50.500;8.660;2022-12-07T14:46:47;1.47;;;1.37;;
8013;SDS011;4052;50.500;8.660;2022-12-07T14:49:14;1.97;;;0.83;;
8013;SDS011;4052;50.500;8.660;2022-12-07T14:51:40;0.70;;;0.70;;
8013;SDS011;4052;50.500;8.660;2022-12-07T14:54:18;0.77;;;0.77;;
8013;SDS011;4052;50.500;8.660;2022-12-07T14:56:45;0.70;;;0.70;;
8013;SDS011;4052;50.500;8.660;2022-12-07T14:59:15;0.60;;;0.60;;
8013;SDS011;4052;50.500;8.660;2022-12-07T15:01:41;1.87;;;0.93;;
8013;SDS011;4052;50.500;8.660;2022-12-07T15:04:08;0.70;;;0.70;;
8013;SDS011;4052;50.500;8.660;2022-12-07T15:06:34;1.33;;;1.27;;
8013;SDS011;4052;50.500;8.660;2022-12-07T15:09:00;0.77;;;0.77;;
8013;SDS011;4052;50.500;8.660;2022-12-07T15:11:26;0.60;;;0.60;;
8013;SDS011;4052;50.500;8.660;2022-12-07T15:13:52;0.70;;;0.70;;
8013;SDS011;4052;50.500;8.660;2022-12-07T15:16:38;0.70;;;0.70;;
8013;SDS011;4052;50.500;8.660;2022-12-07T15:19:05;0.53;;;0.50;;
8013;SDS011;4052;50.500;8.660;2022-12-07T15:21:31;8.53;;;1.07;;
8013;SDS011;4052;50.500;8.660;2022-12-07T15:23:57;0.50;;;0.50;;
8013;SDS011;4052;50.500;8.660;2022-12-07T15:26:23;0.67;;;0.60;;
8013;SDS011;4052;50.500;8.660;2022-12-07T15:28:49;0.60;;;0.60;;
8013;SDS011;4052;50.500;8.660;2022-12-07T15:31:16;0.60;;;0.40;;
8013;SDS011;4052;50.500;8.660;2022-12-07T15:33:43;3.50;;;0.73;;
8013;SDS011;4052;50.500;8.660;2022-12-07T15:36:15;0.53;;;0.53;;
8013;SDS011;4052;50.500;8.660;2022-12-07T15:38:43;0.70;;;0.70;;
8013;SDS011;4052;50.500;8.660;2022-12-07T15:41:09;0.60;;;0.60;;
8013;SDS011;4052;50.500;8.660;2022-12-07T15:43:36;1.00;;;0.50;;
8013;SDS011;4052;50.500;8.660;2022-12-07T15:46:20;0.40;;;0.40;;
8013;SDS011;4052;50.500;8.660;2022-12-07T15:48:46;0.43;;;0.43;;
8013;SDS011;4052;50.500;8.660;2022-12-07T15:51:13;0.40;;;0.40;;
8013;SDS011;4052;50.500;8.660;2022-12-07T15:53:39;1.70;;;0.80;;
8013;SDS011;4052;50.500;8.660;2022-12-07T15:56:05;0.67;;;0.67;;
8013;SDS011;4052;50.500;8.660;2022-12-07T15:58:31;1.80;;;0.57;;
8013;SDS011;4052;50.500;8.660;2022-12-07T16:00:58;0.77;;;0.77;;
8013;SDS011;4052;50.500;8.660;2022-12-07T16:03:24;0.40;;;0.40;;
8013;SDS011;4052;50.500;8.660;2022-12-07T16:05:50;2.80;;;1.13;;
8013;SDS011;4052;50.500;8.660;2022-12-07T16:08:16;0.40;;;0.40;;
8013;SDS011;4052;50.500;8.660;2022-12-07T16:10:42;0.50;;;0.50;;
8013;SDS011;4052;50.500;8.660;2022-12-07T16:13:09;0.60;;;0.60;;
8013;SDS011;4052;50.500;8.660;2022-12-07T16:15:38;2.03;;;0.90;;
8013;SDS011;4052;50.500;8.660;2022-12-07T16:18:05;0.70;;;0.70;;
8013;SDS011;4052;50.500;8.660;2022-12-07T16:20:31;1.60;;;0.50;;
8013;SDS011;4052;50.500;8.660;2022-12-07T16:22:57;0.60;;;0.60;;
8013;SDS011;4052;50.500;8.660;2022-12-07T16:25:23;0.53;;;0.53;;
8013;SDS011;4052;50.500;8.660;2022-12-07T16:27:53;0.73;;;0.73;;
8013;SDS011;4052;50.500;8.660;2022-12-07T16:30:19;0.73;;;0.73;;
8013;SDS011;4052;50.500;8.660;2022-12-07T16:32:46;0.57;;;0.57;;
8013;SDS011;4052;50.500;8.660;2022-12-07T16:35:12;1.10;;;0.90;;
8013;SDS011;4052;50.500;8.660;2022-12-07T16:37:38;0.80;;;0.80;;
8013;SDS011;4052;50.500;8.660;2022-12-07T16:40:07;0.60;;;0.60;;
8013;SDS011;4052;50.500;8.660;2022-12-07T16:42:34;2.33;;;0.50;;
8013;SDS011;4052;50.500;8.660;2022-12-07T16:45:00;1.50;;;1.40;;
8013;SDS011;4052;50.500;8.660;2022-12-07T16:47:27;1.37;;;1.10;;
8013;SDS011;4052;50.500;8.660;2022-12-07T16:49:53;7.67;;;1.80;;
8013;SDS011;4052;50.500;8.660;2022-12-07T16:52:19;0.50;;;0.50;;
8013;SDS011;4052;50.500;8.660;2022-12-07T16:54:46;1.07;;;1.03;;
8013;SDS011;4052;50.500;8.660;2022-12-07T16:57:12;1.33;;;1.23;;
8013;SDS011;4052;50.500;8.660;2022-12-07T16:59:38;1.10;;;1.10;;
8013;SDS011;4052;50.500;8.660;2022-12-07T17:02:05;1.80;;;1.70;;
8013;SDS011;4052;50.500;8.660;2022-12-07T17:04:32;1.67;;;1.13;;
8013;SDS011;4052;50.500;8.660;2022-12-07T17:06:58;1.73;;;0.97;;
8013;SDS011;4052;50.500;8.660;2022-12-07T17:09:24;1.80;;;1.13;;
8013;SDS011;4052;50.500;8.660;2022-12-07T17:11:51;2.30;;;1.73;;
8013;SDS011;4052;50.500;8.660;2022-12-07T17:14:17;2.20;;;1.03;;
8013;SDS011;4052;50.500;8.660;2022-12-07T17:17:01;1.43;;;1.10;;
8013;SDS011;4052;50.500;8.660;2022-12-07T17:19:29;0.90;;;0.90;;
8013;SDS011;4052;50.500;8.660;2022-12-07T17:21:55;1.70;;;1.60;;
8013;SDS011;4052;50.500;8.660;2022-12-07T17:24:21;0.70;;;0.70;;
8013;SDS011;4052;50.500;8.660;2022-12-07T17:26:47;0.77;;;0.77;;
8013;SDS011;4052;50.500;8.660;2022-12-07T17:29:14;1.33;;;1.23;;
8013;SDS011;4052;50.500;8.660;2022-12-07T17:31:41;9.60;;;4.33;;